createdAt,value
2023-04-11T00:02:07.407Z,10.65
2023-04-11T00:04:39.171Z,10.63
2023-04-11T00:07:11.388Z,10.59
2023-04-11T00:09:39.074Z,10.55
2023-04-11T00:12:07.685Z,10.50
2023-04-11T00:14:35.371Z,10.53
2023-04-11T00:17:03.078Z,10.51
2023-04-11T00:19:33.462Z,10.45
2023-04-11T00:22:01.460Z,10.42
2023-04-11T00:24:30.589Z,10.39
2023-04-11T00:26:58.393Z,10.38
2023-04-11T00:29:26.513Z,10.36
2023-04-11T00:31:55.494Z,10.35
2023-04-11T00:34:23.540Z,10.38
2023-04-11T00:36:51.455Z,10.50
2023-04-11T00:39:22.697Z,10.60
2023-04-11T00:41:51.828Z,10.72
2023-04-11T00:44:19.616Z,10.79
2023-04-11T00:46:47.585Z,10.88
2023-04-11T00:49:15.349Z,11.00
2023-04-11T00:51:43.976Z,11.05
2023-04-11T00:54:13.192Z,11.08
2023-04-11T00:56:41.101Z,11.08
2023-04-11T00:59:11.753Z,11.07
2023-04-11T01:01:39.536Z,11.01
2023-04-11T01:04:08.946Z,10.94
2023-04-11T01:06:37.673Z,10.90
2023-04-11T01:09:06.231Z,10.86
2023-04-11T01:11:35.202Z,10.84
2023-04-11T01:14:03.376Z,10.82
2023-04-11T01:16:35.148Z,10.81
2023-04-11T01:19:03.093Z,10.80
2023-04-11T01:21:32.956Z,10.80
2023-04-11T01:24:03.644Z,10.78
2023-04-11T01:26:31.435Z,10.75
2023-04-11T01:28:59.650Z,10.75
2023-04-11T01:31:31.997Z,10.77
2023-04-11T01:34:00.681Z,10.80
2023-04-11T01:36:31.058Z,10.84
2023-04-11T01:38:59.085Z,10.91
2023-04-11T01:41:34.818Z,10.91
2023-04-11T01:44:02.900Z,10.89
2023-04-11T01:46:33.750Z,10.94
2023-04-11T01:49:01.998Z,10.94
2023-04-11T01:51:29.765Z,11.02
2023-04-11T01:53:57.544Z,11.07
2023-04-11T01:56:25.269Z,11.02
2023-04-11T01:58:54.892Z,10.95
2023-04-11T02:01:22.919Z,10.91
2023-04-11T02:03:52.864Z,10.91
2023-04-11T02:06:21.480Z,10.91
2023-04-11T02:08:49.246Z,11.10
2023-04-11T02:11:17.985Z,11.12
2023-04-11T02:13:46.517Z,11.22
2023-04-11T02:16:15.835Z,11.33
2023-04-11T02:18:44.772Z,11.37
2023-04-11T02:21:12.598Z,11.42
2023-04-11T02:23:40.416Z,11.47
2023-04-11T02:26:08.160Z,11.57
2023-04-11T02:28:37.352Z,11.63
2023-04-11T02:31:08.829Z,11.73
2023-04-11T02:33:37.893Z,11.77
2023-04-11T02:36:06.594Z,11.84
2023-04-11T02:38:37.510Z,11.93
2023-04-11T02:41:05.967Z,11.96
2023-04-11T02:43:34.473Z,12.05
2023-04-11T02:46:12.204Z,12.10
2023-04-11T02:48:42.612Z,12.07
2023-04-11T02:51:11.377Z,12.10
2023-04-11T02:53:39.226Z,12.05
2023-04-11T02:56:10.706Z,12.02
2023-04-11T02:58:41.631Z,12.03
2023-04-11T03:01:11.790Z,12.11
2023-04-11T03:03:39.803Z,12.13
2023-04-11T03:06:10.485Z,12.17
2023-04-11T03:08:39.835Z,12.12
2023-04-11T03:11:07.627Z,12.02
2023-04-11T03:13:37.009Z,11.96
2023-04-11T03:16:05.334Z,11.96
2023-04-11T03:18:33.776Z,12.02
2023-04-11T03:21:13.322Z,11.98
2023-04-11T03:23:46.328Z,12.06
2023-04-11T03:26:15.901Z,12.06
2023-04-11T03:28:45.097Z,12.06
2023-04-11T03:31:17.658Z,12.11
2023-04-11T03:33:46.096Z,12.10
2023-04-11T03:36:13.980Z,12.14
2023-04-11T03:38:42.400Z,12.16
2023-04-11T03:41:12.223Z,12.11
2023-04-11T03:43:40.102Z,12.12
2023-04-11T03:46:08.563Z,12.10
2023-04-11T03:48:43.977Z,12.19
2023-04-11T03:51:11.761Z,12.22
2023-04-11T03:53:46.230Z,12.15
2023-04-11T03:56:41.531Z,12.22
2023-04-11T03:59:16.656Z,12.25
2023-04-11T04:02:07.404Z,12.35
2023-04-11T04:04:40.380Z,12.25
2023-04-11T04:07:22.275Z,12.29
2023-04-11T04:09:52.540Z,12.33
2023-04-11T04:12:22.467Z,12.38
2023-04-11T04:15:06.818Z,12.38
2023-04-11T04:17:34.686Z,12.45
2023-04-11T04:20:07.880Z,12.48
2023-04-11T04:22:37.997Z,12.51
2023-04-11T04:25:07.278Z,12.48
2023-04-11T04:27:44.321Z,12.55
2023-04-11T04:30:18.292Z,12.61
2023-04-11T04:33:12.070Z,12.64
2023-04-11T04:35:43.221Z,12.68
2023-04-11T04:38:17.706Z,12.74
2023-04-11T04:40:50.346Z,12.44
2023-04-11T04:43:27.096Z,12.17
2023-04-11T04:46:16.988Z,12.03
2023-04-11T04:48:52.969Z,11.89
2023-04-11T04:51:24.257Z,11.82
2023-04-11T04:53:52.205Z,11.75
2023-04-11T04:56:21.057Z,11.68
2023-04-11T04:58:54.216Z,11.68
2023-04-11T05:01:32.978Z,11.65
2023-04-11T05:04:02.654Z,11.64
2023-04-11T05:06:55.992Z,11.65
2023-04-11T05:09:24.212Z,11.60
2023-04-11T05:11:56.842Z,11.60
2023-04-11T05:14:32.299Z,11.57
2023-04-11T05:17:01.056Z,11.62
2023-04-11T05:19:29.941Z,11.63
2023-04-11T05:21:57.748Z,11.42
2023-04-11T05:24:27.397Z,11.36
2023-04-11T05:26:57.138Z,11.14
2023-04-11T05:29:25.058Z,11.04
2023-04-11T05:31:54.229Z,10.85
2023-04-11T05:34:22.186Z,10.70
2023-04-11T05:36:50.972Z,10.65
2023-04-11T05:39:18.759Z,10.58
2023-04-11T05:41:46.556Z,10.55
2023-04-11T05:44:14.309Z,10.43
2023-04-11T05:46:42.122Z,10.40
2023-04-11T05:49:11.581Z,10.38
2023-04-11T05:51:39.336Z,10.33
2023-04-11T05:54:08.166Z,10.33
2023-04-11T05:56:38.147Z,10.28
2023-04-11T05:59:05.937Z,10.28
2023-04-11T06:01:34.682Z,10.23
2023-04-11T06:04:04.628Z,10.23
2023-04-11T06:06:33.951Z,10.26
2023-04-11T06:09:04.782Z,10.32
2023-04-11T06:11:34.947Z,10.40
2023-04-11T06:14:02.802Z,10.53
2023-04-11T06:16:32.502Z,10.68
2023-04-11T06:19:00.417Z,10.80
2023-04-11T06:21:28.406Z,10.76
2023-04-11T06:23:57.683Z,10.80
2023-04-11T06:26:27.770Z,10.78
2023-04-11T06:28:55.728Z,10.69
2023-04-11T06:31:28.907Z,10.63
2023-04-11T06:36:42.689Z,10.54
2023-04-11T06:39:11.879Z,10.48
2023-04-11T06:41:39.703Z,10.49
2023-04-11T06:44:08.390Z,10.51
2023-04-11T06:46:36.225Z,10.52
2023-04-11T06:49:07.207Z,10.50
2023-04-11T06:51:34.948Z,10.43
2023-04-11T06:54:02.859Z,10.40
2023-04-11T06:56:31.987Z,10.44
2023-04-11T06:58:59.791Z,10.45
2023-04-11T07:01:30.734Z,10.38
2023-04-11T07:03:59.458Z,10.51
2023-04-11T07:06:27.861Z,10.55
2023-04-11T07:08:56.866Z,10.46
2023-04-11T07:11:24.637Z,10.52
2023-04-11T07:13:54.162Z,10.49
2023-04-11T07:16:22.118Z,10.53
2023-04-11T07:18:50.027Z,10.52
2023-04-11T07:21:17.757Z,10.49
2023-04-11T07:23:45.732Z,10.59
2023-04-11T07:26:16.863Z,10.64
2023-04-11T07:28:45.181Z,10.43
2023-04-11T07:31:15.162Z,10.50
2023-04-11T07:33:44.761Z,10.53
2023-04-11T07:36:12.874Z,10.43
2023-04-11T07:38:41.230Z,10.38
2023-04-11T07:41:10.005Z,10.43
2023-04-11T07:43:37.739Z,10.55
2023-04-11T07:46:07.258Z,10.59
2023-04-11T07:48:36.393Z,10.68
2023-04-11T07:51:05.684Z,10.67
2023-04-11T07:53:34.600Z,10.53
2023-04-11T07:56:02.366Z,10.47
2023-04-11T07:58:30.124Z,10.31
2023-04-11T08:00:57.916Z,10.20
2023-04-11T08:03:26.913Z,10.11
2023-04-11T08:05:56.556Z,10.09
2023-04-11T08:08:24.875Z,10.02
2023-04-11T08:10:52.711Z,10.18
2023-04-11T08:13:20.618Z,10.38
2023-04-11T08:15:48.389Z,10.61
2023-04-11T08:18:16.346Z,10.54
2023-04-11T08:20:44.132Z,10.67
2023-04-11T08:23:13.241Z,10.82
2023-04-11T08:25:43.113Z,10.93
2023-04-11T08:28:12.208Z,10.72
2023-04-11T08:30:42.083Z,10.86
2023-04-11T08:33:10.113Z,11.22
2023-04-11T08:35:40.159Z,11.44
2023-04-11T08:38:08.140Z,11.66
2023-04-11T08:40:37.404Z,11.76
2023-04-11T08:43:11.848Z,11.83
2023-04-11T08:45:39.852Z,12.05
2023-04-11T08:48:08.153Z,11.97
2023-04-11T08:50:36.395Z,12.41
2023-04-11T08:53:05.193Z,12.49
2023-04-11T08:55:35.322Z,12.35
2023-04-11T08:58:04.386Z,12.24
2023-04-11T09:00:32.621Z,12.06
2023-04-11T09:03:02.933Z,12.13
2023-04-11T09:05:34.996Z,11.95
2023-04-11T09:08:08.126Z,11.87
2023-04-11T09:10:37.016Z,11.96
2023-04-11T09:13:21.216Z,12.23
2023-04-11T09:15:50.001Z,12.18
2023-04-11T09:18:33.909Z,12.20
2023-04-11T09:21:04.629Z,12.13
2023-04-11T09:23:34.900Z,12.15
2023-04-11T09:26:02.690Z,11.96
2023-04-11T09:28:41.536Z,11.92
2023-04-11T09:31:12.922Z,11.89
2023-04-11T09:33:52.660Z,11.78
2023-04-11T09:36:23.587Z,11.70
2023-04-11T09:38:51.569Z,11.96
2023-04-11T09:41:33.418Z,11.94
2023-04-11T09:44:02.973Z,12.30
2023-04-11T09:46:31.037Z,12.34
2023-04-11T09:49:01.461Z,12.42
2023-04-11T09:51:36.379Z,12.57
2023-04-11T09:54:06.028Z,12.48
2023-04-11T09:56:35.747Z,12.78
2023-04-11T09:59:08.224Z,12.54
2023-04-11T10:01:39.142Z,12.29
2023-04-11T10:04:06.873Z,12.35
2023-04-11T10:06:42.473Z,12.34
2023-04-11T10:09:12.860Z,12.21
2023-04-11T10:11:42.328Z,12.41
2023-04-11T10:14:43.986Z,12.48
2023-04-11T10:17:13.705Z,12.49
2023-04-11T10:19:41.637Z,12.29
2023-04-11T10:22:09.535Z,12.02
2023-04-11T10:24:37.267Z,12.25
2023-04-11T10:27:07.868Z,12.43
2023-04-11T10:29:52.848Z,12.41
2023-04-11T10:32:25.885Z,12.58
2023-04-11T10:35:21.570Z,12.36
2023-04-11T10:37:50.356Z,12.29
2023-04-11T10:40:20.454Z,12.47
2023-04-11T10:42:49.117Z,12.77
2023-04-11T10:45:26.574Z,12.82
2023-04-11T10:48:07.402Z,13.03
2023-04-11T10:50:44.415Z,13.13
2023-04-11T10:53:36.544Z,13.35
2023-04-11T10:56:04.617Z,13.89
2023-04-11T10:58:37.780Z,13.92
2023-04-11T11:01:31.903Z,14.30
2023-04-11T11:04:06.315Z,14.16
2023-04-11T11:06:46.065Z,13.77
2023-04-11T11:09:23.127Z,13.94
2023-04-11T11:12:08.833Z,13.68
2023-04-11T11:14:36.983Z,13.84
2023-04-11T11:17:06.406Z,13.47
2023-04-11T11:19:35.523Z,13.39
2023-04-11T11:22:06.773Z,13.07
2023-04-11T11:24:34.555Z,12.65
2023-04-11T11:27:02.348Z,12.63
2023-04-11T11:29:35.601Z,12.93
2023-04-11T11:32:04.939Z,12.98
2023-04-11T11:34:35.989Z,13.25
2023-04-11T11:37:05.289Z,13.38
2023-04-11T11:39:36.091Z,13.40
2023-04-11T11:42:06.754Z,13.37
2023-04-11T11:44:34.519Z,13.39
2023-04-11T11:47:03.614Z,13.26
2023-04-11T11:49:46.307Z,13.17
2023-04-11T11:52:14.183Z,13.05
2023-04-11T11:54:45.941Z,13.50
2023-04-11T11:57:22.600Z,13.72
2023-04-11T11:59:55.199Z,13.71
2023-04-11T12:02:24.351Z,13.81
2023-04-11T12:04:59.726Z,13.82
2023-04-11T12:07:28.230Z,13.95
2023-04-11T12:09:59.866Z,14.28
2023-04-11T12:12:37.157Z,14.29
2023-04-11T12:15:10.904Z,14.09
2023-04-11T12:17:39.287Z,13.75
2023-04-11T12:20:10.710Z,13.97
2023-04-11T12:22:39.164Z,14.32
2023-04-11T12:25:08.401Z,14.74
2023-04-11T12:27:38.512Z,14.99
2023-04-11T12:30:07.462Z,15.81
2023-04-11T12:32:35.521Z,15.87
2023-04-11T12:35:04.341Z,16.19
2023-04-11T12:37:34.191Z,15.72
2023-04-11T12:40:03.897Z,15.32
2023-04-11T12:42:33.289Z,15.07
2023-04-11T12:45:02.480Z,15.37
2023-04-11T12:47:30.204Z,15.01
2023-04-11T12:49:57.961Z,14.82
2023-04-11T12:52:26.338Z,14.67
2023-04-11T12:54:55.816Z,14.77
2023-04-11T12:57:23.908Z,14.90
2023-04-11T12:59:52.409Z,14.85
2023-04-11T13:02:20.883Z,14.78
2023-04-11T13:04:53.277Z,15.06
2023-04-11T13:07:21.547Z,15.40
2023-04-11T13:09:51.944Z,15.42
2023-04-11T13:12:23.619Z,15.11
2023-04-11T13:14:52.348Z,14.60
2023-04-11T13:17:20.081Z,14.77
2023-04-11T13:19:47.820Z,15.05
2023-04-11T13:22:15.606Z,15.21
2023-04-11T13:24:44.631Z,15.57
2023-04-11T13:27:12.400Z,15.27
2023-04-11T13:29:41.988Z,15.33
2023-04-11T13:32:09.757Z,15.24
2023-04-11T13:34:37.448Z,15.19
2023-04-11T13:37:05.290Z,15.15
2023-04-11T13:39:33.056Z,15.35
2023-04-11T13:42:00.793Z,15.14
2023-04-11T13:44:28.524Z,15.28
2023-04-11T13:46:57.743Z,15.39
2023-04-11T13:49:25.567Z,15.37
2023-04-11T13:51:53.272Z,15.56
2023-04-11T13:54:21.041Z,15.65
2023-04-11T13:56:48.975Z,15.58
2023-04-11T13:59:16.700Z,15.74
2023-04-11T14:01:50.501Z,15.43
2023-04-11T14:04:19.852Z,15.59
2023-04-11T14:06:47.597Z,15.56
2023-04-11T14:09:15.324Z,15.52
2023-04-11T14:11:43.047Z,15.17
2023-04-11T14:14:30.293Z,15.22
2023-04-11T14:16:58.116Z,15.16
2023-04-11T14:19:27.368Z,15.15
2023-04-11T14:21:55.136Z,14.83
2023-04-11T14:24:22.881Z,14.95
2023-04-11T14:26:50.761Z,15.05
2023-04-11T14:29:20.989Z,15.02
2023-04-11T14:31:50.419Z,14.96
2023-04-11T14:34:19.497Z,15.22
2023-04-11T14:36:48.660Z,15.17
2023-04-11T14:39:17.233Z,15.36
2023-04-11T14:41:45.030Z,15.52
2023-04-11T14:44:13.395Z,15.50
2023-04-11T14:46:41.263Z,15.43
2023-04-11T14:49:09.368Z,15.35
2023-04-11T14:51:37.673Z,15.24
2023-04-11T14:54:07.301Z,15.36
2023-04-11T14:56:35.150Z,15.43
2023-04-11T14:59:06.686Z,15.40
2023-04-11T15:01:34.459Z,15.37
2023-04-11T15:04:02.394Z,15.34
2023-04-11T15:06:31.667Z,15.34
2023-04-11T15:09:00.098Z,15.17
2023-04-11T15:11:29.378Z,15.08
2023-04-11T15:13:59.506Z,14.84
2023-04-11T15:16:27.375Z,14.90
2023-04-11T15:18:55.552Z,14.83
2023-04-11T15:21:24.294Z,14.65
2023-04-11T15:23:52.245Z,14.56
2023-04-11T15:26:20.003Z,14.56
2023-04-11T15:28:51.646Z,14.41
2023-04-11T15:31:26.336Z,14.27
2023-04-11T15:33:57.169Z,13.93
2023-04-11T15:36:26.250Z,13.93
2023-04-11T15:38:54.021Z,13.85
2023-04-11T15:41:22.411Z,13.97
2023-04-11T15:43:51.540Z,14.30
2023-04-11T15:46:21.425Z,14.69
2023-04-11T15:48:49.389Z,14.99
2023-04-11T15:51:17.969Z,15.09
2023-04-11T15:53:48.298Z,15.16
2023-04-11T15:56:17.660Z,15.17
2023-04-11T15:58:45.501Z,14.67
2023-04-11T16:01:22.787Z,14.52
2023-04-11T16:03:51.619Z,14.30
2023-04-11T16:06:19.942Z,14.07
2023-04-11T16:08:48.536Z,13.99
2023-04-11T16:11:16.311Z,14.04
2023-04-11T16:13:45.077Z,13.91
2023-04-11T16:16:12.932Z,13.72
2023-04-11T16:18:44.531Z,13.58
2023-04-11T16:21:17.792Z,13.71
2023-04-11T16:23:45.610Z,13.90
2023-04-11T16:26:15.700Z,13.69
2023-04-11T16:28:46.795Z,13.53
2023-04-11T16:31:21.809Z,13.43
2023-04-11T16:33:53.131Z,13.41
2023-04-11T16:36:23.031Z,13.44
2023-04-11T16:38:50.869Z,13.47
2023-04-11T16:41:18.633Z,13.63
2023-04-11T16:43:46.418Z,13.60
2023-04-11T16:46:15.592Z,13.52
2023-04-11T16:48:48.708Z,13.42
2023-04-11T16:51:21.420Z,13.25
2023-04-11T16:53:50.160Z,13.23
2023-04-11T16:56:20.542Z,13.12
2023-04-11T16:58:48.468Z,13.05
2023-04-11T17:01:16.360Z,13.03
2023-04-11T17:03:44.878Z,13.04
2023-04-11T17:06:14.661Z,13.13
2023-04-11T17:08:44.541Z,13.09
2023-04-11T17:11:13.443Z,13.10
2023-04-11T17:13:45.047Z,13.20
2023-04-11T17:16:13.602Z,13.12
2023-04-11T17:18:42.536Z,13.05
2023-04-11T17:21:12.954Z,12.94
2023-04-11T17:23:43.468Z,12.73
2023-04-11T17:26:16.419Z,12.58
2023-04-11T17:28:47.748Z,12.43
2023-04-11T17:31:17.288Z,12.24
2023-04-11T17:33:45.751Z,12.06
2023-04-11T17:36:15.577Z,11.88
2023-04-11T17:38:45.226Z,11.82
2023-04-11T17:41:18.747Z,11.80
2023-04-11T17:43:46.473Z,11.74
2023-04-11T17:46:15.436Z,11.52
2023-04-11T17:48:47.382Z,11.47
2023-04-11T17:51:15.318Z,11.40
2023-04-11T17:53:49.459Z,11.37
2023-04-11T17:56:20.397Z,11.19
2023-04-11T17:58:50.661Z,11.06
2023-04-11T18:01:21.124Z,10.86
2023-04-11T18:03:53.801Z,10.77
2023-04-11T18:06:21.612Z,10.65
2023-04-11T18:08:51.006Z,10.51
2023-04-11T18:11:21.009Z,10.45
2023-04-11T18:13:50.434Z,10.34
2023-04-11T18:16:18.629Z,10.34
2023-04-11T18:18:48.303Z,10.26
2023-04-11T18:21:16.318Z,10.25
2023-04-11T18:23:48.489Z,10.15
2023-04-11T18:26:16.222Z,10.07
2023-04-11T18:28:47.417Z,10.02
2023-04-11T18:31:28.888Z,9.95
2023-04-11T18:33:56.919Z,9.83
2023-04-11T18:36:26.308Z,9.70
2023-04-11T18:38:55.499Z,9.59
2023-04-11T18:41:24.780Z,9.48
2023-04-11T18:43:53.901Z,9.38
2023-04-11T18:46:21.645Z,9.26
2023-04-11T18:48:50.009Z,9.14
2023-04-11T18:51:21.372Z,9.16
2023-04-11T18:53:49.378Z,9.04
2023-04-11T18:56:19.370Z,8.93
2023-04-11T18:58:49.773Z,8.80
2023-04-11T19:01:22.911Z,8.70
2023-04-11T19:03:54.379Z,8.63
2023-04-11T19:06:25.950Z,8.54
2023-04-11T19:08:56.019Z,8.46
2023-04-11T19:11:25.241Z,8.34
2023-04-11T19:13:55.042Z,8.30
2023-04-11T19:16:24.271Z,8.04
2023-04-11T19:18:52.099Z,7.90
2023-04-11T19:21:20.920Z,7.74
2023-04-11T19:23:49.605Z,7.58
2023-04-11T19:26:18.148Z,7.47
2023-04-11T19:28:46.266Z,7.28
2023-04-11T19:31:14.358Z,7.17
2023-04-11T19:33:43.556Z,7.23
2023-04-11T19:36:11.335Z,7.12
2023-04-11T19:38:44.114Z,7.09
2023-04-11T19:41:14.980Z,6.96
2023-04-11T19:43:45.521Z,6.90
2023-04-11T19:46:13.360Z,6.97
2023-04-11T19:48:43.307Z,6.95
2023-04-11T19:51:12.310Z,6.85
2023-04-11T19:53:40.071Z,6.75
2023-04-11T19:56:09.895Z,6.64
2023-04-11T19:58:37.714Z,6.56
2023-04-11T20:01:08.532Z,6.48
2023-04-11T20:03:37.293Z,6.52
2023-04-11T20:06:09.836Z,6.44
2023-04-11T20:08:38.090Z,6.59
2023-04-11T20:11:07.091Z,6.47
2023-04-11T20:13:36.995Z,6.33
2023-04-11T20:16:08.979Z,6.26
2023-04-11T20:18:36.720Z,6.24
2023-04-11T20:21:09.327Z,6.10
2023-04-11T20:23:37.068Z,6.05
2023-04-11T20:26:04.971Z,6.08
2023-04-11T20:28:32.899Z,6.03
2023-04-11T20:31:00.895Z,6.02
2023-04-11T20:33:29.764Z,6.00
2023-04-11T20:35:58.172Z,5.95
2023-04-11T20:38:27.576Z,5.98
2023-04-11T20:40:55.620Z,6.03
2023-04-11T20:43:26.533Z,5.98
2023-04-11T20:45:54.503Z,6.02
2023-04-11T20:48:22.269Z,6.01
2023-04-11T20:50:53.499Z,5.96
2023-04-11T20:53:21.611Z,5.96
2023-04-11T20:55:50.957Z,5.96
2023-04-11T20:58:20.754Z,5.86
2023-04-11T21:00:48.655Z,5.91
2023-04-11T21:03:16.670Z,5.90
2023-04-11T21:05:46.660Z,5.89
2023-04-11T21:08:15.505Z,5.82
2023-04-11T21:10:43.233Z,5.97
2023-04-11T21:13:13.094Z,6.03
2023-04-11T21:15:40.851Z,5.95
2023-04-11T21:18:08.607Z,5.96
2023-04-11T21:20:36.440Z,5.95
2023-04-11T21:23:04.331Z,6.00
2023-04-11T21:25:35.149Z,6.03
2023-04-11T21:28:03.366Z,6.08
2023-04-11T21:30:32.616Z,6.07
2023-04-11T21:33:01.058Z,6.09
2023-04-11T21:35:29.596Z,6.08
2023-04-11T21:37:57.337Z,6.17
2023-04-11T21:40:25.099Z,6.23
2023-04-11T21:42:53.243Z,6.20
2023-04-11T21:45:23.016Z,6.22
2023-04-11T21:47:52.537Z,6.25
2023-04-11T21:50:20.319Z,6.30
2023-04-11T21:52:48.087Z,6.36
2023-04-11T21:55:16.347Z,6.41
2023-04-11T21:57:44.126Z,6.43
2023-04-11T22:00:12.464Z,6.47
2023-04-11T22:02:40.772Z,6.53
2023-04-11T22:05:10.661Z,6.56
2023-04-11T22:07:47.810Z,6.55
2023-04-11T22:10:22.112Z,6.50
2023-04-11T22:12:49.857Z,6.50
2023-04-11T22:15:18.774Z,6.51
2023-04-11T22:17:50.435Z,6.57
2023-04-11T22:20:21.118Z,6.59
2023-04-11T22:22:48.847Z,6.64
2023-04-11T22:25:18.304Z,6.69
2023-04-11T22:27:46.154Z,6.70
2023-04-11T22:30:15.268Z,6.73
2023-04-11T22:32:43.106Z,6.73
2023-04-11T22:35:10.874Z,6.74
2023-04-11T22:37:40.061Z,6.73
2023-04-11T22:40:11.652Z,6.70
2023-04-11T22:42:39.823Z,6.72
2023-04-11T22:45:20.153Z,6.75
2023-04-11T22:47:47.955Z,6.79
2023-04-11T22:50:16.555Z,6.83
2023-04-11T22:52:48.586Z,6.86
2023-04-11T22:55:21.079Z,6.88
2023-04-11T22:57:48.986Z,6.90
2023-04-11T23:00:18.776Z,6.92
2023-04-11T23:02:47.087Z,6.91
2023-04-11T23:05:14.839Z,6.88
2023-04-11T23:07:42.524Z,6.86
2023-04-11T23:10:15.384Z,6.88
2023-04-11T23:12:44.330Z,6.88
2023-04-11T23:15:12.804Z,6.88
2023-04-11T23:17:42.217Z,6.88
2023-04-11T23:20:12.782Z,6.85
2023-04-11T23:22:43.612Z,6.84
2023-04-11T23:25:14.943Z,6.86
2023-04-11T23:27:43.808Z,6.87
2023-04-11T23:30:12.882Z,6.90
2023-04-11T23:32:41.390Z,6.90
2023-04-11T23:35:10.664Z,6.91
2023-04-11T23:37:38.412Z,6.92
2023-04-11T23:40:10.492Z,6.91
2023-04-11T23:42:40.490Z,6.89
2023-04-11T23:45:10.547Z,6.96
2023-04-11T23:47:38.728Z,6.98
2023-04-11T23:50:07.807Z,6.86
2023-04-11T23:52:35.579Z,6.79
2023-04-11T23:55:03.637Z,6.82
2023-04-11T23:57:31.915Z,6.80
